createdAt,value
2022-10-23T00:01:26.567Z,7.93
2022-10-23T00:04:08.138Z,6.78
2022-10-23T00:09:02.524Z,7.03
2022-10-23T00:11:31.508Z,7.15
2022-10-23T00:16:27.246Z,7.55
2022-10-23T00:18:53.917Z,7.60
2022-10-23T00:21:20.797Z,7.43
2022-10-23T00:23:47.921Z,7.20
2022-10-23T00:26:15.882Z,7.18
2022-10-23T00:28:47.652Z,6.95
2022-10-23T00:31:14.728Z,7.18
2022-10-23T00:33:42.331Z,6.75
2022-10-23T00:36:11.159Z,7.40
2022-10-23T00:38:37.819Z,7.65
2022-10-23T00:41:05.796Z,7.40
2022-10-23T00:43:33.325Z,8.43
2022-10-23T00:45:59.993Z,8.48
2022-10-23T00:48:28.113Z,8.35
2022-10-23T00:50:55.236Z,8.07
2022-10-23T00:53:22.260Z,8.20
2022-10-23T00:55:50.808Z,8.02
2022-10-23T00:58:19.100Z,8.15
2022-10-23T01:00:56.315Z,7.85
2022-10-23T01:03:26.818Z,7.40
2022-10-23T01:06:35.160Z,7.57
2022-10-23T01:09:08.208Z,7.90
2022-10-23T01:11:54.707Z,6.88
2022-10-23T01:15:03.098Z,8.38
2022-10-23T01:17:55.770Z,7.07
2022-10-23T01:20:34.444Z,7.07
2022-10-23T01:23:23.480Z,7.18
2022-10-23T01:25:55.669Z,7.13
2022-10-23T01:28:30.987Z,8.60
2022-10-23T01:33:28.589Z,7.68
2022-10-23T01:36:04.514Z,9.00
2022-10-23T01:38:47.745Z,9.57
2022-10-23T01:41:22.406Z,8.85
2022-10-23T01:43:56.233Z,9.57
2022-10-23T01:46:23.969Z,10.23
2022-10-23T01:48:54.956Z,9.88
2022-10-23T01:51:24.891Z,9.25
2022-10-23T01:53:53.080Z,10.43
2022-10-23T01:56:27.274Z,10.32
2022-10-23T01:58:55.669Z,10.18
2022-10-23T02:01:23.959Z,9.70
2022-10-23T02:03:51.322Z,10.50
2022-10-23T02:06:18.076Z,10.27
2022-10-23T02:08:44.887Z,10.20
2022-10-23T02:11:14.556Z,10.73
2022-10-23T02:13:45.712Z,10.27
2022-10-23T02:16:34.093Z,10.02
2022-10-23T02:19:00.682Z,9.57
2022-10-23T02:21:58.841Z,9.65
2022-10-23T02:24:34.534Z,9.30
2022-10-23T02:27:03.489Z,8.98
2022-10-23T02:29:31.297Z,8.52
2022-10-23T02:31:57.987Z,7.85
2022-10-23T02:34:24.625Z,8.85
2022-10-23T02:36:51.308Z,8.77
2022-10-23T02:39:18.010Z,10.45
2022-10-23T02:41:48.326Z,11.95
2022-10-23T02:44:39.420Z,11.52
2022-10-23T02:47:05.992Z,11.10
2022-10-23T02:50:22.585Z,13.40
2022-10-23T02:53:27.028Z,12.98
2022-10-23T02:55:53.634Z,12.52
2022-10-23T02:58:45.146Z,14.40
2022-10-23T03:01:15.839Z,14.45
2022-10-23T03:04:11.893Z,16.02
2022-10-23T03:06:38.543Z,16.85
2022-10-23T03:09:09.800Z,19.67
2022-10-23T03:11:36.800Z,17.58
2022-10-23T03:14:03.568Z,19.85
2022-10-23T03:16:30.199Z,20.52
2022-10-23T03:18:56.802Z,19.55
2022-10-23T03:21:23.447Z,19.17
2022-10-23T03:23:50.118Z,19.10
2022-10-23T03:26:16.772Z,18.67
2022-10-23T03:28:43.446Z,19.08
2022-10-23T03:31:10.136Z,21.85
2022-10-23T03:33:36.839Z,22.88
2022-10-23T03:36:03.620Z,18.13
2022-10-23T03:38:30.421Z,17.17
2022-10-23T03:40:57.119Z,20.80
2022-10-23T03:43:23.757Z,20.23
2022-10-23T03:45:52.067Z,16.95
2022-10-23T03:48:18.719Z,28.17
2022-10-23T03:50:45.334Z,13.98
2022-10-23T03:53:11.953Z,16.33
2022-10-23T03:55:38.583Z,25.08
2022-10-23T03:58:05.245Z,17.23
2022-10-23T04:00:31.933Z,18.27
2022-10-23T04:02:58.592Z,17.63
2022-10-23T04:05:25.229Z,17.40
2022-10-23T04:07:51.964Z,17.58
2022-10-23T04:10:18.690Z,16.40
2022-10-23T04:12:46.154Z,16.70
2022-10-23T04:15:12.820Z,18.23
2022-10-23T04:17:39.502Z,13.63
2022-10-23T04:20:06.289Z,13.98
2022-10-23T04:22:32.908Z,15.75
2022-10-23T04:24:59.567Z,24.65
2022-10-23T04:27:26.183Z,21.92
2022-10-23T04:29:55.497Z,18.60
2022-10-23T04:32:24.893Z,23.75
2022-10-23T04:34:51.551Z,15.18
2022-10-23T04:37:18.197Z,16.17
2022-10-23T04:39:44.822Z,16.25
2022-10-23T04:42:11.466Z,15.85
2022-10-23T04:44:38.106Z,14.90
2022-10-23T04:47:04.830Z,12.52
2022-10-23T04:49:31.506Z,13.77
2022-10-23T04:51:58.228Z,13.02
2022-10-23T04:54:24.902Z,11.32
2022-10-23T04:56:51.559Z,10.98
2022-10-23T04:59:18.188Z,12.25
2022-10-23T05:01:44.850Z,14.85
2022-10-23T05:04:11.972Z,13.13
2022-10-23T05:06:38.614Z,12.75
2022-10-23T05:09:05.231Z,12.70
2022-10-23T05:11:31.895Z,11.93
2022-10-23T05:13:58.512Z,11.75
2022-10-23T05:16:44.772Z,10.60
2022-10-23T05:19:15.143Z,9.60
2022-10-23T05:21:41.833Z,9.32
2022-10-23T05:24:08.758Z,9.32
2022-10-23T05:26:35.380Z,9.48
2022-10-23T05:29:01.996Z,9.40
2022-10-23T05:31:28.699Z,8.27
2022-10-23T05:33:55.581Z,9.77
2022-10-23T05:36:23.137Z,8.93
2022-10-23T05:38:49.906Z,10.07
2022-10-23T05:41:16.691Z,9.43
2022-10-23T05:43:43.425Z,9.00
2022-10-23T05:46:10.084Z,11.07
2022-10-23T05:48:36.724Z,10.88
2022-10-23T05:51:05.345Z,9.25
2022-10-23T05:53:32.145Z,8.63
2022-10-23T05:56:04.849Z,8.38
2022-10-23T05:58:31.578Z,8.82
2022-10-23T06:00:58.260Z,9.55
2022-10-23T06:03:25.023Z,13.43
2022-10-23T06:05:52.100Z,8.90
2022-10-23T06:08:19.171Z,8.88
2022-10-23T06:10:45.784Z,9.13
2022-10-23T06:13:12.463Z,7.90
2022-10-23T06:15:39.072Z,8.48
2022-10-23T06:18:06.014Z,13.15
2022-10-23T06:20:36.076Z,13.20
2022-10-23T06:23:03.174Z,12.75
2022-10-23T06:25:29.845Z,19.92
2022-10-23T06:27:56.560Z,8.57
2022-10-23T06:30:23.607Z,7.85
2022-10-23T06:32:50.766Z,13.40
2022-10-23T06:35:17.652Z,7.25
2022-10-23T06:37:44.298Z,7.20
2022-10-23T06:40:11.156Z,6.32
2022-10-23T06:42:37.771Z,6.30
2022-10-23T06:45:07.160Z,7.05
2022-10-23T06:47:34.007Z,17.13
2022-10-23T06:50:00.695Z,7.68
2022-10-23T06:52:47.878Z,5.70
2022-10-23T06:55:15.030Z,6.30
2022-10-23T06:57:42.276Z,6.88
2022-10-23T07:00:10.181Z,6.90
2022-10-23T07:02:36.895Z,9.10
2022-10-23T07:05:04.098Z,7.35
2022-10-23T07:07:31.004Z,7.88
2022-10-23T07:09:57.667Z,6.32
2022-10-23T07:12:24.364Z,7.47
2022-10-23T07:14:51.024Z,6.50
2022-10-23T07:17:17.725Z,6.03
2022-10-23T07:19:44.369Z,8.82
2022-10-23T07:22:13.429Z,6.82
2022-10-23T07:24:42.539Z,6.90
2022-10-23T07:27:09.216Z,6.78
2022-10-23T07:29:35.919Z,6.60
2022-10-23T07:32:02.711Z,6.22
2022-10-23T07:34:29.437Z,5.70
2022-10-23T07:36:57.050Z,6.50
2022-10-23T07:39:24.136Z,6.57
2022-10-23T07:41:50.790Z,6.43
2022-10-23T07:44:17.971Z,6.95
2022-10-23T07:46:44.610Z,7.13
2022-10-23T07:49:11.445Z,6.40
2022-10-23T07:51:38.208Z,6.15
2022-10-23T07:54:04.914Z,7.15
2022-10-23T07:56:31.805Z,7.35
2022-10-23T07:58:58.444Z,6.75
2022-10-23T08:01:25.136Z,7.10
2022-10-23T08:03:51.860Z,5.82
2022-10-23T08:06:18.504Z,5.93
2022-10-23T08:11:20.394Z,5.05
2022-10-23T08:13:47.029Z,7.47
2022-10-23T08:16:13.668Z,5.13
2022-10-23T08:18:42.715Z,5.45
2022-10-23T08:21:10.239Z,5.60
2022-10-23T08:23:36.961Z,4.97
2022-10-23T08:26:05.705Z,4.60
2022-10-23T08:30:59.246Z,4.47
2022-10-23T08:33:26.052Z,4.90
2022-10-23T08:35:52.745Z,4.45
2022-10-23T08:38:19.444Z,4.68
2022-10-23T08:40:48.020Z,5.78
2022-10-23T08:43:37.813Z,4.90
2022-10-23T08:46:16.919Z,5.15
2022-10-23T08:48:45.994Z,7.07
2022-10-23T08:51:37.148Z,4.38
2022-10-23T08:54:15.114Z,5.05
2022-10-23T08:56:43.256Z,4.85
2022-10-23T08:59:28.514Z,4.05
2022-10-23T09:02:13.197Z,4.18
2022-10-23T09:04:40.615Z,4.85
2022-10-23T09:07:13.065Z,4.05
2022-10-23T09:09:52.922Z,4.10
2022-10-23T09:12:24.985Z,3.85
2022-10-23T09:15:13.255Z,4.28
2022-10-23T09:17:41.815Z,5.00
2022-10-23T09:20:19.537Z,4.28
2022-10-23T09:22:48.449Z,6.00
2022-10-23T09:25:22.257Z,3.88
2022-10-23T09:27:55.705Z,4.28
2022-10-23T09:30:28.319Z,4.13
2022-10-23T09:32:55.137Z,5.00
2022-10-23T09:35:24.181Z,4.40
2022-10-23T09:37:53.394Z,3.70
2022-10-23T09:40:29.092Z,3.78
2022-10-23T09:42:59.294Z,4.30
2022-10-23T09:45:29.894Z,7.13
2022-10-23T09:48:17.454Z,4.50
2022-10-23T09:50:55.722Z,5.90
2022-10-23T09:53:47.176Z,3.65
2022-10-23T09:56:28.234Z,4.65
2022-10-23T09:59:21.899Z,3.75
2022-10-23T10:01:57.971Z,3.90
2022-10-23T10:04:36.218Z,4.20
2022-10-23T10:07:05.956Z,3.97
2022-10-23T10:09:32.951Z,3.95
2022-10-23T10:12:10.804Z,3.30
2022-10-23T10:15:15.683Z,3.72
2022-10-23T10:18:10.041Z,3.90
2022-10-23T10:20:51.915Z,3.97
2022-10-23T10:23:42.637Z,3.63
2022-10-23T10:26:27.920Z,3.72
2022-10-23T10:29:04.312Z,3.97
2022-10-23T10:31:50.764Z,3.85
2022-10-23T10:34:30.264Z,4.43
2022-10-23T10:37:22.230Z,3.53
2022-10-23T10:40:09.781Z,3.38
2022-10-23T10:42:48.765Z,5.32
2022-10-23T10:45:18.089Z,3.75
2022-10-23T10:48:32.357Z,3.47
2022-10-23T10:51:21.481Z,3.90
2022-10-23T10:54:12.272Z,4.18
2022-10-23T10:56:42.324Z,4.18
2022-10-23T10:59:15.013Z,4.50
2022-10-23T11:02:02.234Z,3.78
2022-10-23T11:04:53.377Z,3.25
2022-10-23T11:07:23.024Z,3.10
2022-10-23T11:09:49.909Z,3.92
2022-10-23T11:12:27.838Z,3.67
2022-10-23T11:14:54.506Z,3.47
2022-10-23T11:17:36.749Z,3.75
2022-10-23T11:20:19.202Z,3.10
2022-10-23T11:22:54.251Z,3.25
2022-10-23T11:25:58.020Z,3.55
2022-10-23T11:28:33.411Z,3.88
2022-10-23T11:31:00.022Z,3.15
2022-10-23T11:33:51.902Z,3.83
2022-10-23T11:36:20.404Z,4.40
2022-10-23T11:38:49.564Z,3.15
2022-10-23T11:41:25.572Z,5.07
2022-10-23T11:44:01.795Z,4.60
2022-10-23T11:46:32.850Z,6.18
2022-10-23T11:49:02.592Z,3.75
2022-10-23T11:51:34.043Z,4.03
2022-10-23T11:54:16.235Z,4.55
2022-10-23T11:57:10.541Z,3.63
2022-10-23T11:59:49.403Z,3.33
2022-10-23T12:02:21.945Z,3.22
2022-10-23T12:04:51.584Z,4.35
2022-10-23T12:07:28.673Z,3.22
2022-10-23T12:10:01.455Z,3.75
2022-10-23T12:12:42.618Z,3.45
2022-10-23T12:15:14.646Z,2.75
2022-10-23T12:17:42.935Z,3.97
2022-10-23T12:20:12.539Z,3.20
2022-10-23T12:22:44.944Z,3.38
2022-10-23T12:25:24.135Z,2.80
2022-10-23T12:28:03.909Z,3.75
2022-10-23T12:30:45.185Z,2.58
2022-10-23T12:33:19.740Z,2.67
2022-10-23T12:35:49.941Z,3.67
2022-10-23T12:38:19.461Z,4.43
2022-10-23T12:40:50.727Z,3.03
2022-10-23T12:43:24.965Z,2.70
2022-10-23T12:45:52.013Z,2.35
2022-10-23T12:48:21.364Z,2.92
2022-10-23T12:50:50.643Z,2.85
2022-10-23T12:53:19.268Z,3.08
2022-10-23T12:58:35.205Z,6.57
2022-10-23T13:01:06.721Z,3.42
2022-10-23T13:03:34.544Z,3.85
2022-10-23T13:06:03.163Z,5.18
2022-10-23T13:11:10.150Z,6.90
2022-10-23T13:13:36.788Z,3.55
2022-10-23T13:16:14.466Z,3.20
2022-10-23T13:18:42.399Z,4.15
2022-10-23T13:21:17.473Z,3.15
2022-10-23T13:23:44.241Z,3.17
2022-10-23T13:26:29.660Z,2.95
2022-10-23T13:28:56.964Z,2.83
2022-10-23T13:31:32.155Z,3.50
2022-10-23T13:34:01.839Z,2.83
2022-10-23T13:36:31.142Z,4.22
2022-10-23T13:39:09.882Z,4.38
2022-10-23T13:41:40.037Z,4.25
2022-10-23T13:44:07.156Z,3.85
2022-10-23T13:46:33.965Z,3.65
2022-10-23T13:49:00.641Z,3.45
2022-10-23T13:51:32.830Z,3.72
2022-10-23T13:53:59.493Z,8.52
2022-10-23T13:56:27.416Z,5.30
2022-10-23T13:58:54.203Z,4.88
2022-10-23T14:01:23.890Z,3.60
2022-10-23T14:03:51.684Z,2.75
2022-10-23T14:06:18.399Z,3.53
2022-10-23T14:08:45.325Z,2.70
2022-10-23T14:13:45.513Z,2.00
2022-10-23T14:16:14.129Z,2.40
2022-10-23T14:18:40.953Z,3.35
2022-10-23T14:21:09.263Z,3.95
2022-10-23T14:23:35.959Z,3.33
2022-10-23T14:26:08.051Z,2.33
2022-10-23T14:28:34.799Z,3.20
2022-10-23T14:31:06.299Z,2.45
2022-10-23T14:33:33.060Z,2.70
2022-10-23T14:35:59.742Z,2.80
2022-10-23T14:38:26.809Z,3.72
2022-10-23T14:40:53.577Z,4.15
2022-10-23T14:43:20.337Z,4.72
2022-10-23T14:45:46.976Z,2.50
2022-10-23T14:48:13.704Z,3.03
2022-10-23T14:50:44.844Z,5.53
2022-10-23T14:53:11.692Z,3.65
2022-10-23T14:55:38.753Z,4.40
2022-10-23T14:58:05.984Z,3.80
2022-10-23T15:00:32.622Z,3.75
2022-10-23T15:02:59.724Z,3.17
2022-10-23T15:05:26.435Z,2.53
2022-10-23T15:07:53.151Z,2.15
2022-10-23T15:10:19.770Z,3.15
2022-10-23T15:12:46.685Z,10.07
2022-10-23T15:15:13.572Z,4.47
2022-10-23T15:17:41.525Z,3.50
2022-10-23T15:20:08.869Z,2.72
2022-10-23T15:22:35.591Z,3.00
2022-10-23T15:25:02.275Z,2.80
2022-10-23T15:27:28.976Z,2.65
2022-10-23T15:29:55.668Z,6.90
2022-10-23T15:32:22.445Z,3.00
2022-10-23T15:34:49.839Z,2.50
2022-10-23T15:37:16.562Z,3.30
2022-10-23T15:39:43.424Z,4.20
2022-10-23T15:42:10.433Z,3.17
2022-10-23T15:44:37.308Z,2.60
2022-10-23T15:47:04.030Z,4.10
2022-10-23T15:49:33.129Z,4.07
2022-10-23T15:52:00.518Z,4.63
2022-10-23T15:54:30.491Z,5.15
2022-10-23T15:56:59.490Z,6.95
2022-10-23T15:59:27.086Z,6.30
2022-10-23T16:01:54.143Z,5.00
2022-10-23T16:04:21.176Z,7.28
2022-10-23T16:06:48.251Z,8.48
2022-10-23T16:09:15.602Z,5.63
2022-10-23T16:11:43.224Z,5.00
2022-10-23T16:14:15.884Z,6.15
2022-10-23T16:16:42.550Z,6.03
2022-10-23T16:19:10.715Z,7.60
2022-10-23T16:21:37.543Z,5.72
2022-10-23T16:24:06.541Z,6.93
2022-10-23T16:29:02.452Z,5.88
2022-10-23T16:31:29.900Z,6.05
2022-10-23T16:34:00.602Z,5.93
2022-10-23T16:36:28.342Z,6.63
2022-10-23T16:38:55.099Z,5.35
2022-10-23T16:41:21.808Z,5.55
2022-10-23T16:43:48.495Z,5.88
2022-10-23T16:46:18.014Z,8.13
2022-10-23T16:48:44.668Z,7.50
2022-10-23T16:51:17.953Z,5.47
2022-10-23T16:53:45.558Z,6.30
2022-10-23T16:56:17.734Z,7.50
2022-10-23T16:58:44.790Z,7.18
2022-10-23T17:01:13.202Z,6.53
2022-10-23T17:03:42.301Z,7.38
2022-10-23T17:08:38.355Z,6.95
2022-10-23T17:11:07.998Z,7.68
2022-10-23T17:13:35.983Z,8.27
2022-10-23T17:16:11.284Z,8.07
2022-10-23T17:18:42.843Z,6.20
2022-10-23T17:21:11.858Z,8.07
2022-10-23T17:23:38.598Z,7.95
2022-10-23T17:26:15.359Z,8.07
2022-10-23T17:28:43.126Z,7.57
2022-10-23T17:31:15.394Z,8.05
2022-10-23T17:33:43.061Z,8.75
2022-10-23T17:36:11.504Z,8.15
2022-10-23T17:38:40.092Z,7.88
2022-10-23T17:41:08.032Z,7.40
2022-10-23T17:43:35.898Z,7.35
2022-10-23T17:46:04.945Z,8.50
2022-10-23T17:51:08.497Z,7.05
2022-10-23T17:53:36.703Z,10.27
2022-10-23T17:56:05.888Z,7.70
2022-10-23T17:58:33.450Z,9.10
2022-10-23T18:01:11.387Z,8.95
2022-10-23T18:03:38.733Z,7.80
2022-10-23T18:06:18.956Z,7.63
2022-10-23T18:08:46.141Z,7.75
2022-10-23T18:11:33.107Z,7.00
2022-10-23T18:16:33.290Z,6.90
2022-10-23T18:19:01.600Z,6.55
2022-10-23T18:21:28.901Z,7.15
2022-10-23T18:23:55.757Z,7.63
2022-10-23T18:26:24.918Z,6.90
2022-10-23T18:28:54.074Z,6.68
2022-10-23T18:31:21.530Z,7.07
2022-10-23T18:33:48.293Z,9.57
2022-10-23T18:36:23.620Z,7.97
2022-10-23T18:38:51.148Z,9.73
2022-10-23T18:41:19.297Z,10.40
2022-10-23T18:43:46.214Z,9.90
2022-10-23T18:46:13.862Z,7.82
2022-10-23T18:48:41.428Z,6.90
2022-10-23T18:51:23.281Z,7.57
2022-10-23T18:53:50.224Z,10.70
2022-10-23T18:56:23.237Z,10.73
2022-10-23T18:58:50.923Z,10.77
2022-10-23T19:01:19.058Z,10.77
2022-10-23T19:03:46.194Z,8.85
2022-10-23T19:06:13.380Z,8.38
2022-10-23T19:08:41.878Z,11.63
2022-10-23T19:11:09.173Z,12.68
2022-10-23T19:13:40.438Z,34.00
2022-10-23T19:16:29.252Z,31.02
2022-10-23T19:18:59.295Z,30.45
2022-10-23T19:21:31.757Z,17.65
2022-10-23T19:24:00.887Z,13.05
2022-10-23T19:26:30.399Z,14.05
2022-10-23T19:28:57.623Z,10.25
2022-10-23T19:31:26.482Z,10.25
2022-10-23T19:33:53.907Z,10.27
2022-10-23T19:36:23.367Z,9.98
2022-10-23T19:38:50.619Z,9.32
2022-10-23T19:41:18.376Z,15.60
2022-10-23T19:43:45.052Z,7.95
2022-10-23T19:46:12.404Z,8.70
2022-10-23T19:48:44.449Z,7.28
2022-10-23T19:51:13.280Z,8.57
2022-10-23T19:53:41.342Z,8.10
2022-10-23T19:56:09.859Z,9.55
2022-10-23T19:58:36.603Z,9.23
2022-10-23T20:01:15.743Z,8.85
2022-10-23T20:03:44.623Z,8.93
2022-10-23T20:06:13.025Z,10.45
2022-10-23T20:08:40.621Z,10.85
2022-10-23T20:11:08.165Z,11.50
2022-10-23T20:13:35.056Z,10.55
2022-10-23T20:16:01.765Z,10.20
2022-10-23T20:18:28.435Z,10.98
2022-10-23T20:20:55.176Z,10.80
2022-10-23T20:23:21.974Z,10.30
2022-10-23T20:25:48.673Z,10.75
2022-10-23T20:28:15.462Z,10.73
2022-10-23T20:30:42.715Z,9.98
2022-10-23T20:33:09.413Z,9.48
2022-10-23T20:35:41.067Z,9.45
2022-10-23T20:38:08.032Z,9.55
2022-10-23T20:40:34.768Z,9.13
2022-10-23T20:43:01.444Z,10.00
2022-10-23T20:45:28.144Z,10.20
2022-10-23T20:47:54.837Z,10.23
2022-10-23T20:50:23.875Z,11.43
2022-10-23T20:55:17.731Z,11.40
2022-10-23T20:57:44.634Z,10.32
2022-10-23T21:00:11.944Z,10.95
2022-10-23T21:02:38.649Z,10.60
2022-10-23T21:05:06.011Z,10.40
2022-10-23T21:07:32.731Z,10.35
2022-10-23T21:09:59.434Z,10.55
2022-10-23T21:12:26.122Z,12.43
2022-10-23T21:14:53.649Z,10.18
2022-10-23T21:17:20.817Z,10.05
2022-10-23T21:19:47.566Z,10.50
2022-10-23T21:22:14.314Z,10.18
2022-10-23T21:24:40.945Z,10.00
2022-10-23T21:27:07.622Z,9.82
2022-10-23T21:29:34.356Z,9.80
2022-10-23T21:32:01.738Z,10.27
2022-10-23T21:34:28.798Z,9.18
2022-10-23T21:39:43.261Z,9.57
2022-10-23T21:42:11.068Z,8.43
2022-10-23T21:44:37.894Z,8.98
2022-10-23T21:47:04.644Z,9.35
2022-10-23T21:49:31.674Z,9.15
2022-10-23T21:51:58.362Z,10.13
2022-10-23T21:54:25.018Z,10.65
2022-10-23T21:56:53.866Z,9.35
2022-10-23T22:04:17.457Z,8.82
2022-10-23T22:06:45.335Z,8.60
2022-10-23T22:09:14.350Z,8.52
2022-10-23T22:11:41.672Z,8.32
2022-10-23T22:14:08.487Z,8.68
2022-10-23T22:16:35.156Z,7.70
2022-10-23T22:19:01.772Z,8.00
2022-10-23T22:21:29.553Z,8.10
2022-10-23T22:23:58.152Z,9.40
2022-10-23T22:26:28.923Z,9.20
2022-10-23T22:28:58.108Z,8.35
2022-10-23T22:31:27.736Z,9.02
2022-10-23T22:33:55.221Z,9.05
2022-10-23T22:36:21.925Z,8.27
2022-10-23T22:38:48.873Z,7.35
2022-10-23T22:41:16.331Z,7.25
2022-10-23T22:43:42.962Z,7.72
2022-10-23T22:46:12.204Z,6.93
2022-10-23T22:48:39.292Z,7.05
2022-10-23T22:51:08.884Z,6.25
2022-10-23T22:53:35.965Z,5.93
2022-10-23T22:56:06.831Z,5.88
2022-10-23T22:58:33.572Z,6.30
2022-10-23T23:01:32.983Z,6.30
2022-10-23T23:04:08.801Z,6.25
2022-10-23T23:06:47.173Z,5.43
2022-10-23T23:09:17.895Z,5.47
2022-10-23T23:11:51.549Z,5.32
2022-10-23T23:14:22.961Z,4.75
2022-10-23T23:16:51.724Z,4.68
2022-10-23T23:19:18.331Z,5.57
2022-10-23T23:21:44.967Z,5.28
2022-10-23T23:24:12.209Z,5.32
2022-10-23T23:26:39.044Z,5.60
2022-10-23T23:29:05.790Z,5.45
2022-10-23T23:31:32.466Z,5.13
2022-10-23T23:33:59.289Z,5.30
2022-10-23T23:36:27.098Z,5.70
2022-10-23T23:38:55.651Z,5.43
2022-10-23T23:41:22.635Z,5.00
2022-10-23T23:43:49.571Z,5.32
2022-10-23T23:46:17.077Z,5.20
2022-10-23T23:48:47.912Z,5.68
2022-10-23T23:51:19.865Z,4.82
2022-10-23T23:53:47.817Z,5.32
2022-10-23T23:56:14.599Z,5.03
2022-10-23T23:58:41.533Z,5.00
